Time;durP1;ratioP1;P1;durP2;ratioP2;P2;SDS_P1;SDS_P2;PMS_P1;PMS_P2;Temp;Humidity;BMP_temperature;BMP_pressure;BME280_temperature;BME280_humidity;BME280_pressure;Samples;Min_cycle;Max_cycle;Signal;HPM_P1;HPM_P2
2023/01/16 00:00:14;;;;;;;29.65;17.95;;;;;;;;;;5001819;28;20033;-73
2023/01/16 00:02:45;;;;;;;32.80;17.88;;;;;;;;;;5001335;28;20060;-73
2023/01/16 00:05:10;;;;;;;20.02;12.32;;;;;;;;;;5001761;28;20532;-72
2023/01/16 00:07:39;;;;;;;21.55;11.93;;;;;;;;;;5002353;28;20037;-73
2023/01/16 00:10:05;;;;;;;21.38;12.23;;;;;;;;;;4999409;28;20335;-73
2023/01/16 00:12:30;;;;;;;27.50;15.00;;;;;;;;;;5002430;28;20605;-73
2023/01/16 00:14:55;;;;;;;34.03;17.80;;;;;;;;;;4999513;28;20040;-72
2023/01/16 00:17:20;;;;;;;36.95;20.20;;;;;;;;;;4968802;28;20044;-72
2023/01/16 00:19:46;;;;;;;37.83;20.02;;;;;;;;;;5001298;28;20499;-73
2023/01/16 00:22:11;;;;;;;33.78;20.50;;;;;;;;;;5009205;28;20098;-73
2023/01/16 00:24:36;;;;;;;34.78;18.25;;;;;;;;;;5018611;28;20037;-73
2023/01/16 00:27:02;;;;;;;38.15;20.48;;;;;;;;;;5021151;28;20548;-72
2023/01/16 00:29:27;;;;;;;33.33;19.52;;;;;;;;;;5022296;28;20047;-73
2023/01/16 00:31:52;;;;;;;30.30;17.60;;;;;;;;;;5020456;28;20051;-71
2023/01/16 00:34:18;;;;;;;32.42;18.52;;;;;;;;;;5021373;28;20036;-73
2023/01/16 00:36:43;;;;;;;28.25;16.38;;;;;;;;;;5020820;28;20029;-72
2023/01/16 00:39:09;;;;;;;23.08;13.60;;;;;;;;;;5021186;28;20021;-72
2023/01/16 00:41:34;;;;;;;32.38;15.05;;;;;;;;;;5018183;28;20041;-73
2023/01/16 00:44:00;;;;;;;22.27;13.43;;;;;;;;;;5021718;28;20021;-73
2023/01/16 00:46:26;;;;;;;30.13;15.00;;;;;;;;;;5025695;28;20152;-73
2023/01/16 00:48:51;;;;;;;28.42;13.88;;;;;;;;;;5023144;28;20035;-73
2023/01/16 00:51:17;;;;;;;21.92;13.05;;;;;;;;;;5040984;28;20355;-72
2023/01/16 00:53:42;;;;;;;33.78;17.90;;;;;;;;;;5041332;28;20028;-73
2023/01/16 00:56:07;;;;;;;32.13;16.65;;;;;;;;;;5039451;28;20024;-72
2023/01/16 00:58:35;;;;;;;36.35;16.80;;;;;;;;;;5040793;28;20504;-73
2023/01/16 01:01:01;;;;;;;38.03;18.67;;;;;;;;;;5040450;28;20364;-72
2023/01/16 01:03:27;;;;;;;41.65;21.63;;;;;;;;;;5041044;28;20114;-73
2023/01/16 01:05:55;;;;;;;47.45;22.85;;;;;;;;;;5040372;28;20081;-74
2023/01/16 01:08:22;;;;;;;44.08;21.95;;;;;;;;;;5040490;28;20046;-75
2023/01/16 01:10:48;;;;;;;44.40;24.83;;;;;;;;;;5038316;28;20439;-75
2023/01/16 01:13:17;;;;;;;49.97;24.60;;;;;;;;;;5040785;28;20033;-75
2023/01/16 01:15:42;;;;;;;29.73;18.85;;;;;;;;;;5040430;28;20476;-74
2023/01/16 01:18:07;;;;;;;45.05;24.25;;;;;;;;;;5038071;28;20033;-74
2023/01/16 01:20:32;;;;;;;38.58;21.10;;;;;;;;;;5034861;28;20485;-74
2023/01/16 01:22:58;;;;;;;37.70;21.05;;;;;;;;;;5018213;28;20033;-73
2023/01/16 01:25:24;;;;;;;41.88;21.58;;;;;;;;;;5020021;28;20258;-73
2023/01/16 01:27:49;;;;;;;51.15;25.92;;;;;;;;;;5021034;28;20559;-74
2023/01/16 01:30:15;;;;;;;49.20;25.90;;;;;;;;;;5019949;28;20029;-73
2023/01/16 01:32:42;;;;;;;60.20;27.85;;;;;;;;;;5021526;28;20040;-73
2023/01/16 01:35:08;;;;;;;46.15;25.80;;;;;;;;;;5019627;28;20029;-73
2023/01/16 01:37:33;;;;;;;41.95;22.33;;;;;;;;;;5020647;28;20033;-73
2023/01/16 01:39:59;;;;;;;39.10;18.63;;;;;;;;;;5023107;28;20064;-73
2023/01/16 01:42:42;;;;;;;27.38;13.65;;;;;;;;;;5023648;28;20071;-73
2023/01/16 01:45:16;;;;;;;36.25;15.57;;;;;;;;;;5021151;28;20043;-74
2023/01/16 01:47:44;;;;;;;32.20;16.63;;;;;;;;;;4996196;28;20038;-73
2023/01/16 01:50:14;;;;;;;26.08;16.08;;;;;;;;;;4993403;28;20045;-73
2023/01/16 01:52:42;;;;;;;28.17;16.20;;;;;;;;;;5004771;28;20422;-72
2023/01/16 01:55:09;;;;;;;34.03;16.67;;;;;;;;;;4989998;28;20531;-73
2023/01/16 01:57:40;;;;;;;34.22;16.92;;;;;;;;;;4999376;28;20037;-73
2023/01/16 02:00:11;;;;;;;47.05;23.75;;;;;;;;;;5001499;28;20191;-73
2023/01/16 02:02:39;;;;;;;64.35;33.80;;;;;;;;;;5004254;28;20048;-73
2023/01/16 02:05:05;;;;;;;60.13;33.78;;;;;;;;;;5003725;28;20151;-73
2023/01/16 02:07:30;;;;;;;60.83;33.75;;;;;;;;;;5004295;28;20516;-72
2023/01/16 02:10:01;;;;;;;65.88;35.30;;;;;;;;;;5004095;28;20037;-73
2023/01/16 02:12:26;;;;;;;65.15;34.33;;;;;;;;;;5004887;28;20352;-73
2023/01/16 02:14:54;;;;;;;52.15;29.15;;;;;;;;;;5003601;28;20303;-72
2023/01/16 02:20:10;;;;;;;43.47;22.65;;;;;;;;;;5012974;28;20121;-73
2023/01/16 02:22:41;;;;;;;51.20;26.90;;;;;;;;;;5022302;28;20048;-73
2023/01/16 02:25:33;;;;;;;40.58;25.23;;;;;;;;;;5002009;28;20433;-72
2023/01/16 02:28:17;;;;;;;52.10;28.58;;;;;;;;;;5020150;28;20033;-72
2023/01/16 02:31:01;;;;;;;55.95;30.42;;;;;;;;;;5023637;28;20064;-73
2023/01/16 02:33:27;;;;;;;70.63;36.17;;;;;;;;;;5023599;28;20037;-72
2023/01/16 02:35:52;;;;;;;66.05;36.13;;;;;;;;;;5023571;28;20148;-72
2023/01/16 02:38:26;;;;;;;57.28;31.63;;;;;;;;;;5020710;28;20711;-72
2023/01/16 02:40:59;;;;;;;75.85;38.58;;;;;;;;;;5023376;28;20524;-73
2023/01/16 02:43:32;;;;;;;83.53;40.08;;;;;;;;;;5023126;28;20044;-71
2023/01/16 02:46:16;;;;;;;60.80;34.97;;;;;;;;;;5023760;28;20045;-72
2023/01/16 02:49:01;;;;;;;61.85;29.98;;;;;;;;;;5022944;28;20035;-72
2023/01/16 02:51:34;;;;;;;52.53;29.88;;;;;;;;;;5023196;28;20033;-72
2023/01/16 02:54:06;;;;;;;60.20;33.75;;;;;;;;;;5023091;28;20114;-74
2023/01/16 02:56:35;;;;;;;61.42;31.83;;;;;;;;;;5023976;28;20017;-72
2023/01/16 02:59:01;;;;;;;72.72;41.97;;;;;;;;;;5020458;28;20324;-72
2023/01/16 03:01:29;;;;;;;67.47;40.75;;;;;;;;;;5021316;28;20025;-72
2023/01/16 03:03:54;;;;;;;76.90;42.15;;;;;;;;;;5020099;28;20049;-73
2023/01/16 03:06:20;;;;;;;74.45;45.08;;;;;;;;;;5023050;28;20241;-75
2023/01/16 03:08:48;;;;;;;69.65;40.72;;;;;;;;;;5020416;28;20514;-74
2023/01/16 03:11:24;;;;;;;69.53;39.17;;;;;;;;;;5022486;28;20142;-74
2023/01/16 03:14:13;;;;;;;59.83;32.58;;;;;;;;;;5020539;28;20068;-73
2023/01/16 03:16:47;;;;;;;60.88;34.63;;;;;;;;;;4991442;28;20119;-74
2023/01/16 03:19:31;;;;;;;75.03;39.10;;;;;;;;;;5001625;28;20053;-74
2023/01/16 03:22:15;;;;;;;78.35;43.20;;;;;;;;;;4999683;28;20124;-74
2023/01/16 03:24:59;;;;;;;83.93;43.08;;;;;;;;;;5000285;28;20502;-75
2023/01/16 03:27:42;;;;;;;89.47;45.40;;;;;;;;;;5000812;28;20201;-73
2023/01/16 03:30:13;;;;;;;68.60;33.70;;;;;;;;;;5022068;28;20552;-74
2023/01/16 03:32:46;;;;;;;52.13;25.42;;;;;;;;;;5022522;28;20041;-75
2023/01/16 03:35:24;;;;;;;44.13;23.13;;;;;;;;;;5022284;28;20052;-74
2023/01/16 03:37:51;;;;;;;45.05;23.45;;;;;;;;;;5022486;28;20181;-74
2023/01/16 03:40:22;;;;;;;43.22;24.20;;;;;;;;;;5021412;28;20358;-73
2023/01/16 03:42:53;;;;;;;43.38;23.65;;;;;;;;;;5022067;28;20472;-74
2023/01/16 03:45:42;;;;;;;41.33;21.73;;;;;;;;;;5021605;28;20129;-73
2023/01/16 03:48:11;;;;;;;59.85;26.38;;;;;;;;;;4976295;28;20435;-72
2023/01/16 03:50:38;;;;;;;67.85;27.40;;;;;;;;;;4982534;28;20033;-73
2023/01/16 03:53:05;;;;;;;59.55;27.42;;;;;;;;;;4983122;28;20422;-74
2023/01/16 03:55:34;;;;;;;57.03;25.08;;;;;;;;;;4981984;28;20057;-74
2023/01/16 03:58:11;;;;;;;62.50;26.33;;;;;;;;;;5012684;28;20049;-74
2023/01/16 04:00:48;;;;;;;64.25;25.48;;;;;;;;;;4982452;28;20022;-73
2023/01/16 04:03:16;;;;;;;50.78;24.67;;;;;;;;;;4981218;28;20132;-73
2023/01/16 04:05:55;;;;;;;42.42;20.27;;;;;;;;;;4982201;28;20041;-73
2023/01/16 04:08:35;;;;;;;48.65;20.85;;;;;;;;;;4982707;28;20034;-75
2023/01/16 04:11:01;;;;;;;85.60;26.95;;;;;;;;;;4982216;28;20557;-72
2023/01/16 04:13:30;;;;;;;53.65;22.20;;;;;;;;;;5013157;28;20037;-72
2023/01/16 04:15:56;;;;;;;67.55;23.67;;;;;;;;;;4982510;28;20541;-73
2023/01/16 04:18:26;;;;;;;70.47;24.13;;;;;;;;;;4981159;28;20041;-73
2023/01/16 04:20:51;;;;;;;57.67;21.23;;;;;;;;;;4982494;28;20542;-73
2023/01/16 04:23:17;;;;;;;49.97;18.42;;;;;;;;;;4981711;28;20048;-72
2023/01/16 04:25:44;;;;;;;53.25;20.17;;;;;;;;;;4982472;28;20041;-73
2023/01/16 04:28:12;;;;;;;49.40;19.60;;;;;;;;;;4980775;28;20030;-73
2023/01/16 04:30:37;;;;;;;41.85;18.35;;;;;;;;;;4982260;28;20042;-73
2023/01/16 04:33:03;;;;;;;53.47;21.33;;;;;;;;;;5013244;28;20306;-73
2023/01/16 04:35:28;;;;;;;39.28;20.67;;;;;;;;;;5012931;28;20037;-74
2023/01/16 04:37:53;;;;;;;41.63;18.45;;;;;;;;;;4979715;28;20034;-74
2023/01/16 04:40:19;;;;;;;32.53;17.23;;;;;;;;;;4982158;28;20062;-73
2023/01/16 04:42:44;;;;;;;30.75;17.00;;;;;;;;;;4981472;28;20093;-73
2023/01/16 04:45:10;;;;;;;42.15;19.02;;;;;;;;;;4981066;28;20040;-73
2023/01/16 04:47:38;;;;;;;43.67;21.98;;;;;;;;;;5014342;28;20040;-73
2023/01/16 04:50:03;;;;;;;41.97;21.30;;;;;;;;;;5021387;28;20418;-73
2023/01/16 04:52:28;;;;;;;41.08;19.83;;;;;;;;;;5002822;28;20558;-74
2023/01/16 04:54:54;;;;;;;33.58;19.83;;;;;;;;;;5021254;28;20322;-74
2023/01/16 04:57:19;;;;;;;37.08;22.05;;;;;;;;;;5021005;28;20106;-74
2023/01/16 04:59:45;;;;;;;36.38;19.35;;;;;;;;;;5002303;28;20559;-74
2023/01/16 05:02:10;;;;;;;29.15;17.02;;;;;;;;;;5020659;28;20498;-73
2023/01/16 05:04:36;;;;;;;31.95;17.73;;;;;;;;;;5020932;28;20036;-73
2023/01/16 05:07:01;;;;;;;35.33;17.63;;;;;;;;;;5022052;28;20153;-73
2023/01/16 05:09:27;;;;;;;38.40;18.13;;;;;;;;;;5019734;28;20036;-73
2023/01/16 05:11:55;;;;;;;31.40;15.77;;;;;;;;;;5019072;28;20032;-73
2023/01/16 05:14:20;;;;;;;29.50;13.88;;;;;;;;;;5023010;28;20036;-73
2023/01/16 05:16:46;;;;;;;30.08;14.15;;;;;;;;;;5024257;28;20061;-73
2023/01/16 05:19:12;;;;;;;32.17;15.85;;;;;;;;;;5025556;28;20525;-73
2023/01/16 05:21:37;;;;;;;24.92;13.80;;;;;;;;;;5025583;28;20048;-72
2023/01/16 05:24:03;;;;;;;35.80;15.48;;;;;;;;;;5024887;28;20044;-73
2023/01/16 05:26:28;;;;;;;28.40;15.32;;;;;;;;;;5022679;28;20029;-73
2023/01/16 05:28:54;;;;;;;30.55;15.00;;;;;;;;;;5006283;28;20080;-73
2023/01/16 05:31:19;;;;;;;24.30;12.68;;;;;;;;;;5023156;28;20095;-74
2023/01/16 05:33:46;;;;;;;23.08;10.95;;;;;;;;;;5025067;28;20044;-73
2023/01/16 05:36:11;;;;;;;23.52;11.45;;;;;;;;;;5023102;28;20422;-73
2023/01/16 05:38:36;;;;;;;24.92;10.10;;;;;;;;;;5006272;28;20305;-75
2023/01/16 05:41:02;;;;;;;24.10;9.05;;;;;;;;;;5023665;28;20022;-74
2023/01/16 05:43:27;;;;;;;22.15;7.63;;;;;;;;;;5022475;28;20041;-74
2023/01/16 05:45:53;;;;;;;21.95;7.57;;;;;;;;;;5023560;28;20413;-73
2023/01/16 05:48:21;;;;;;;11.95;6.45;;;;;;;;;;5025424;28;20040;-74
2023/01/16 05:50:46;;;;;;;15.52;6.07;;;;;;;;;;5022915;28;20025;-74
2023/01/16 05:53:11;;;;;;;11.02;5.10;;;;;;;;;;5024796;28;20725;-72
2023/01/16 05:55:43;;;;;;;16.48;5.30;;;;;;;;;;5022587;28;20028;-73
2023/01/16 05:58:12;;;;;;;15.65;5.28;;;;;;;;;;5021674;28;20488;-73
2023/01/16 06:00:40;;;;;;;9.85;5.10;;;;;;;;;;5024864;28;20033;-73
2023/01/16 06:03:06;;;;;;;12.57;4.35;;;;;;;;;;5024580;28;20098;-73
2023/01/16 06:05:31;;;;;;;16.55;4.63;;;;;;;;;;5023247;28;20697;-73
2023/01/16 06:07:56;;;;;;;9.90;3.92;;;;;;;;;;5023034;28;20114;-74
2023/01/16 06:10:22;;;;;;;13.20;4.45;;;;;;;;;;5022897;28;20033;-74
2023/01/16 06:12:48;;;;;;;14.27;4.25;;;;;;;;;;5023285;28;20056;-73
2023/01/16 06:15:13;;;;;;;11.65;4.10;;;;;;;;;;5024447;28;20581;-75
2023/01/16 06:17:39;;;;;;;13.15;4.53;;;;;;;;;;5023870;28;20454;-73
2023/01/16 06:20:04;;;;;;;12.05;4.40;;;;;;;;;;5024067;28;20168;-74
2023/01/16 06:22:30;;;;;;;12.68;4.03;;;;;;;;;;5023894;28;20356;-74
2023/01/16 06:24:55;;;;;;;13.57;4.40;;;;;;;;;;5023474;28;20051;-73
2023/01/16 06:27:21;;;;;;;11.82;4.03;;;;;;;;;;5024980;28;20471;-73
2023/01/16 06:29:46;;;;;;;12.43;4.05;;;;;;;;;;5023247;28;20041;-75
2023/01/16 06:32:12;;;;;;;12.85;3.88;;;;;;;;;;5023965;28;20056;-74
2023/01/16 06:34:38;;;;;;;13.32;4.63;;;;;;;;;;5023366;28;20400;-73
2023/01/16 06:37:03;;;;;;;8.68;3.95;;;;;;;;;;5026103;28;20198;-74
2023/01/16 06:39:29;;;;;;;11.93;3.55;;;;;;;;;;5025093;28;20272;-74
2023/01/16 06:41:56;;;;;;;9.70;3.72;;;;;;;;;;5055479;28;20494;-76
2023/01/16 06:44:21;;;;;;;15.85;4.15;;;;;;;;;;5039293;28;20116;-75
2023/01/16 06:46:47;;;;;;;10.18;3.70;;;;;;;;;;5064898;28;20037;-75
2023/01/16 06:49:12;;;;;;;12.65;3.70;;;;;;;;;;5040565;28;20044;-75
2023/01/16 06:51:37;;;;;;;13.38;3.53;;;;;;;;;;5040953;28;20512;-74
2023/01/16 06:54:04;;;;;;;10.23;3.47;;;;;;;;;;5042831;28;20033;-74
2023/01/16 06:56:29;;;;;;;15.57;3.50;;;;;;;;;;5043654;28;20044;-75
2023/01/16 06:58:55;;;;;;;10.52;3.40;;;;;;;;;;5043372;28;20059;-74
2023/01/16 07:01:20;;;;;;;15.63;4.00;;;;;;;;;;5043257;28;20497;-75
2023/01/16 07:03:45;;;;;;;12.77;3.45;;;;;;;;;;5042598;28;20280;-74
2023/01/16 07:06:12;;;;;;;15.55;3.70;;;;;;;;;;5042791;28;20032;-75
2023/01/16 07:08:38;;;;;;;12.48;3.45;;;;;;;;;;5042002;28;20260;-73
2023/01/16 07:11:03;;;;;;;11.75;3.72;;;;;;;;;;5043411;28;20044;-75
2023/01/16 07:13:29;;;;;;;12.45;3.38;;;;;;;;;;5029272;28;20048;-73
2023/01/16 07:24:15;;;;;;;14.13;5.55;;;;;;;;;;5003932;28;20052;-73
2023/01/16 07:26:42;;;;;;;16.70;4.10;;;;;;;;;;5004922;28;20034;-74
2023/01/16 07:29:08;;;;;;;9.52;3.00;;;;;;;;;;5007605;28;20553;-71
2023/01/16 07:31:34;;;;;;;9.20;3.13;;;;;;;;;;5025308;28;20044;-73
2023/01/16 07:34:00;;;;;;;11.43;2.95;;;;;;;;;;5021984;28;20108;-73
2023/01/16 07:36:25;;;;;;;9.70;2.92;;;;;;;;;;5022611;28;20124;-72
2023/01/16 07:38:50;;;;;;;9.18;2.97;;;;;;;;;;5023322;28;20028;-74
2023/01/16 07:41:18;;;;;;;8.80;2.88;;;;;;;;;;5022775;28;20066;-72
2023/01/16 07:43:44;;;;;;;11.57;2.80;;;;;;;;;;5022790;28;20563;-72
2023/01/16 07:46:09;;;;;;;10.88;2.97;;;;;;;;;;5027433;28;20033;-72
2023/01/16 07:48:34;;;;;;;9.40;2.88;;;;;;;;;;5042737;28;20074;-72
2023/01/16 07:51:00;;;;;;;9.43;3.33;;;;;;;;;;5042781;28;20028;-71
2023/01/16 07:53:27;;;;;;;5.63;2.85;;;;;;;;;;5042660;28;20032;-72
2023/01/16 07:55:54;;;;;;;8.32;3.60;;;;;;;;;;5041960;28;20029;-72
2023/01/16 07:58:20;;;;;;;12.10;3.22;;;;;;;;;;5042289;28;20305;-72
2023/01/16 08:00:49;;;;;;;8.25;3.70;;;;;;;;;;5046180;28;20039;-73
2023/01/16 08:03:14;;;;;;;7.47;3.20;;;;;;;;;;5039885;28;20051;-72
2023/01/16 08:05:40;;;;;;;8.50;4.03;;;;;;;;;;5031360;28;20033;-72
2023/01/16 08:08:06;;;;;;;9.90;3.35;;;;;;;;;;5031869;28;20120;-72
2023/01/16 08:10:31;;;;;;;6.55;3.53;;;;;;;;;;5016188;28;20629;-72
2023/01/16 08:12:57;;;;;;;9.00;3.90;;;;;;;;;;5033276;28;20056;-72
2023/01/16 08:15:22;;;;;;;12.07;3.83;;;;;;;;;;5034269;28;20124;-72
2023/01/16 08:17:48;;;;;;;10.32;3.85;;;;;;;;;;5030006;28;20046;-72
2023/01/16 08:20:13;;;;;;;9.50;3.83;;;;;;;;;;5015658;28;20041;-73
2023/01/16 08:22:42;;;;;;;5.85;3.60;;;;;;;;;;5014533;28;20045;-73
2023/01/16 08:25:11;;;;;;;9.75;3.92;;;;;;;;;;5012655;28;20036;-73
2023/01/16 08:27:36;;;;;;;10.55;3.10;;;;;;;;;;5014648;28;20061;-73
2023/01/16 08:30:04;;;;;;;7.35;3.33;;;;;;;;;;5011202;28;20124;-72
2023/01/16 08:32:33;;;;;;;6.93;3.60;;;;;;;;;;4999916;28;20186;-72
2023/01/16 08:34:58;;;;;;;5.40;3.00;;;;;;;;;;5000131;28;20474;-70
2023/01/16 08:37:24;;;;;;;5.43;2.85;;;;;;;;;;5002017;28;20052;-73
2023/01/16 08:39:49;;;;;;;5.47;2.90;;;;;;;;;;5001256;28;20124;-72
2023/01/16 08:53:10;;;;;;;5.63;2.97;;;;;;;;;;5001223;28;20253;-71
2023/01/16 08:55:36;;;;;;;5.75;3.22;;;;;;;;;;4999926;28;20040;-71
2023/01/16 08:58:01;;;;;;;7.45;3.60;;;;;;;;;;5001363;28;20045;-72
2023/01/16 09:00:27;;;;;;;6.53;3.40;;;;;;;;;;5002152;28;20037;-72
2023/01/16 09:02:53;;;;;;;8.55;3.83;;;;;;;;;;5001062;28;20045;-72
2023/01/16 09:05:18;;;;;;;7.07;3.30;;;;;;;;;;5000078;28;20076;-71
2023/01/16 09:07:44;;;;;;;6.05;2.85;;;;;;;;;;5000769;28;20041;-73
2023/01/16 09:10:09;;;;;;;6.90;3.60;;;;;;;;;;5001819;28;20021;-72
2023/01/16 09:15:19;;;;;;;4.93;3.42;;;;;;;;;;5018651;28;20819;-72
2023/01/16 09:17:44;;;;;;;4.60;3.30;;;;;;;;;;5019171;28;20520;-73
2023/01/16 09:20:12;;;;;;;7.00;3.75;;;;;;;;;;5019289;28;20033;-72
2023/01/16 09:22:37;;;;;;;6.30;4.10;;;;;;;;;;5020408;28;20446;-71
2023/01/16 09:25:03;;;;;;;7.15;3.92;;;;;;;;;;5002868;28;20052;-71
2023/01/16 09:27:30;;;;;;;7.05;4.50;;;;;;;;;;5021069;28;20527;-71
2023/01/16 09:29:56;;;;;;;9.05;4.53;;;;;;;;;;5021524;28;20112;-71
2023/01/16 09:32:21;;;;;;;9.73;5.30;;;;;;;;;;5021346;28;20074;-71
2023/01/16 09:34:49;;;;;;;10.35;5.10;;;;;;;;;;5002106;28;20321;-72
2023/01/16 09:37:14;;;;;;;10.15;5.28;;;;;;;;;;5021522;28;20256;-72
2023/01/16 09:39:41;;;;;;;9.13;5.75;;;;;;;;;;5018897;28;20028;-71
2023/01/16 09:45:17;;;;;;;11.57;6.55;;;;;;;;;;5020940;28;20059;-71
2023/01/16 09:47:44;;;;;;;8.45;5.80;;;;;;;;;;5001986;28;20044;-71
2023/01/16 09:50:17;;;;;;;8.75;5.70;;;;;;;;;;5021148;28;20257;-72
2023/01/16 09:58:46;;;;;;;10.05;6.65;;;;;;;;;;5020490;28;20305;-72
2023/01/16 10:01:13;;;;;;;8.80;6.30;;;;;;;;;;5024188;28;20040;-71
2023/01/16 10:03:42;;;;;;;9.52;6.68;;;;;;;;;;5024409;28;20290;-71
2023/01/16 10:06:14;;;;;;;10.73;6.75;;;;;;;;;;5020287;28;20612;-72
2023/01/16 10:08:39;;;;;;;11.10;7.05;;;;;;;;;;5024017;28;20665;-72
2023/01/16 10:11:08;;;;;;;12.95;7.65;;;;;;;;;;5025663;28;20029;-73
2023/01/16 10:13:44;;;;;;;10.88;7.40;;;;;;;;;;5035089;28;20135;-71
2023/01/16 10:16:16;;;;;;;11.55;7.18;;;;;;;;;;5022955;28;20565;-72
2023/01/16 10:18:42;;;;;;;10.38;7.57;;;;;;;;;;5025063;28;20132;-72
2023/01/16 10:21:16;;;;;;;11.98;8.32;;;;;;;;;;5037776;28;20103;-74
2023/01/16 10:23:47;;;;;;;10.68;7.60;;;;;;;;;;5036202;28;20033;-72
2023/01/16 10:26:28;;;;;;;12.85;8.73;;;;;;;;;;5036723;28;20033;-72
2023/01/16 10:29:05;;;;;;;12.07;8.70;;;;;;;;;;5070801;28;20367;-73
2023/01/16 10:31:38;;;;;;;18.35;14.82;;;;;;;;;;5035791;28;20224;-73
2023/01/16 10:34:15;;;;;;;13.85;9.70;;;;;;;;;;5068273;28;20033;-74
2023/01/16 10:36:43;;;;;;;12.13;8.68;;;;;;;;;;5014422;28;20115;-74
2023/01/16 10:39:10;;;;;;;13.38;10.20;;;;;;;;;;5016072;28;20109;-72
2023/01/16 10:50:18;;;;;;;12.38;9.50;;;;;;;;;;5037166;28;20029;-74
2023/01/16 10:52:43;;;;;;;13.85;9.50;;;;;;;;;;5037070;28;20028;-73
2023/01/16 10:55:10;;;;;;;15.15;11.13;;;;;;;;;;5036274;28;20025;-73
2023/01/16 10:57:41;;;;;;;11.98;7.22;;;;;;;;;;5039610;28;20108;-72
2023/01/16 11:00:11;;;;;;;12.40;7.45;;;;;;;;;;5042358;28;20029;-73
2023/01/16 11:02:40;;;;;;;12.35;7.50;;;;;;;;;;5069558;28;20041;-73
2023/01/16 11:05:22;;;;;;;13.68;7.68;;;;;;;;;;5038016;28;20029;-73
2023/01/16 11:07:47;;;;;;;8.93;6.72;;;;;;;;;;5029309;28;20516;-73
2023/01/16 11:10:15;;;;;;;13.52;7.50;;;;;;;;;;5016696;28;20255;-72
2023/01/16 11:18:28;;;;;;;10.02;6.40;;;;;;;;;;5020460;28;20471;-73
2023/01/16 11:20:57;;;;;;;10.10;5.80;;;;;;;;;;5021090;28;20026;-72
2023/01/16 11:23:23;;;;;;;11.55;7.10;;;;;;;;;;5018669;28;20037;-72
2023/01/16 11:25:50;;;;;;;8.43;6.00;;;;;;;;;;5018946;28;20405;-72
2023/01/16 11:28:26;;;;;;;8.00;4.90;;;;;;;;;;5019487;28;20481;-72
2023/01/16 11:30:53;;;;;;;7.10;4.22;;;;;;;;;;5019664;28;20041;-72
2023/01/16 11:33:23;;;;;;;9.60;6.13;;;;;;;;;;5018534;28;20041;-71
2023/01/16 11:35:59;;;;;;;10.23;5.93;;;;;;;;;;5014610;28;20073;-72
2023/01/16 11:38:26;;;;;;;10.75;5.90;;;;;;;;;;5018270;28;20474;-71
2023/01/16 11:40:54;;;;;;;9.68;5.65;;;;;;;;;;5020215;28;20136;-73
2023/01/16 11:46:27;;;;;;;10.50;6.03;;;;;;;;;;5017638;28;20505;-73
2023/01/16 11:48:53;;;;;;;41.10;13.65;;;;;;;;;;5015420;28;20030;-73
2023/01/16 11:51:23;;;;;;;17.75;7.78;;;;;;;;;;5013135;28;20036;-73
2023/01/16 11:53:50;;;;;;;26.35;8.90;;;;;;;;;;5009217;28;20267;-72
2023/01/16 11:56:16;;;;;;;14.52;6.18;;;;;;;;;;5003827;28;21358;-72
2023/01/16 11:58:50;;;;;;;13.68;6.30;;;;;;;;;;5003064;28;20037;-71
2023/01/16 12:02:15;;;;;;;13.60;6.22;;;;;;;;;;5002427;28;20638;-71
2023/01/16 12:04:23;;;;;;;16.20;6.45;;;;;;;;;;5020803;28;20048;-70
2023/01/16 12:06:56;;;;;;;18.85;7.80;;;;;;;;;;5010387;28;20335;-71
2023/01/16 12:09:29;;;;;;;13.50;7.22;;;;;;;;;;5002753;28;20029;-70
2023/01/16 12:14:17;;;;;;;20.70;7.93;;;;;;;;;;5000259;28;20033;-71
2023/01/16 12:15:13;;;;;;;12.05;6.45;;;;;;;;;;5001971;28;20084;-72
2023/01/16 12:17:52;;;;;;;18.40;7.28;;;;;;;;;;5001064;28;20045;-70
2023/01/16 12:20:26;;;;;;;21.67;8.15;;;;;;;;;;5006718;28;20067;-71
2023/01/16 12:22:51;;;;;;;12.32;6.10;;;;;;;;;;5010950;28;20067;-72
2023/01/16 12:25:25;;;;;;;12.80;5.97;;;;;;;;;;5011171;28;20034;-71
2023/01/16 12:27:56;;;;;;;19.17;7.82;;;;;;;;;;5012699;28;20116;-72
2023/01/16 12:30:42;;;;;;;10.13;5.68;;;;;;;;;;5014618;28;20072;-71
2023/01/16 12:33:13;;;;;;;15.10;6.63;;;;;;;;;;5008390;28;20048;-71
2023/01/16 12:35:49;;;;;;;12.07;6.78;;;;;;;;;;5011120;28;20036;-72
2023/01/16 12:38:16;;;;;;;13.77;7.63;;;;;;;;;;5007050;28;20716;-71
2023/01/16 12:40:43;;;;;;;13.27;8.13;;;;;;;;;;5001982;28;20599;-71
2023/01/16 12:43:18;;;;;;;12.43;7.55;;;;;;;;;;5000534;28;20045;-71
2023/01/16 12:45:49;;;;;;;17.55;8.90;;;;;;;;;;5004117;28;20033;-70
2023/01/16 12:48:18;;;;;;;16.00;8.90;;;;;;;;;;5039033;28;20332;-70
2023/01/16 12:50:54;;;;;;;17.10;9.10;;;;;;;;;;5041368;28;20206;-70
2023/01/16 12:53:19;;;;;;;14.15;9.75;;;;;;;;;;5022700;28;20038;-72
2023/01/16 12:55:45;;;;;;;13.85;9.95;;;;;;;;;;5041834;28;20032;-71
2023/01/16 12:58:22;;;;;;;16.77;10.77;;;;;;;;;;5040985;28;20177;-71
2023/01/16 13:01:03;;;;;;;18.92;12.00;;;;;;;;;;5039329;28;20036;-71
2023/01/16 13:03:39;;;;;;;14.43;9.63;;;;;;;;;;5041563;28;20567;-71
2023/01/16 13:06:06;;;;;;;15.18;9.80;;;;;;;;;;5023571;28;20037;-71
2023/01/16 13:08:36;;;;;;;18.90;10.20;;;;;;;;;;5019611;28;20280;-71
2023/01/16 13:14:08;;;;;;;18.48;9.88;;;;;;;;;;5011664;28;20025;-73
2023/01/16 13:16:44;;;;;;;15.25;10.95;;;;;;;;;;5026346;28;20094;-73
2023/01/16 13:19:14;;;;;;;17.73;10.80;;;;;;;;;;5026348;28;20029;-73
2023/01/16 13:22:04;;;;;;;18.70;10.82;;;;;;;;;;5024255;28;20266;-72
2023/01/16 13:24:33;;;;;;;13.32;9.52;;;;;;;;;;4979217;28;20034;-72
2023/01/16 13:27:13;;;;;;;16.05;10.60;;;;;;;;;;5037310;28;20079;-72
2023/01/16 13:29:46;;;;;;;14.00;9.63;;;;;;;;;;5024889;28;20071;-73
2023/01/16 13:32:17;;;;;;;17.10;10.80;;;;;;;;;;5002025;28;20112;-72
2023/01/16 13:34:45;;;;;;;14.35;9.95;;;;;;;;;;4991480;28;20525;-73
2023/01/16 13:37:26;;;;;;;15.15;11.57;;;;;;;;;;4994216;28;20547;-72
2023/01/16 13:39:57;;;;;;;19.92;12.18;;;;;;;;;;4992301;28;20550;-73
2023/01/16 13:42:27;;;;;;;14.57;11.75;;;;;;;;;;4990829;28;20038;-72
2023/01/16 13:47:40;;;;;;;19.25;12.95;;;;;;;;;;4991204;28;20041;-72
2023/01/16 13:50:08;;;;;;;15.90;11.32;;;;;;;;;;4979353;28;20359;-72
2023/01/16 13:52:34;;;;;;;15.70;9.95;;;;;;;;;;4999851;28;20371;-72
2023/01/16 13:55:01;;;;;;;19.13;11.85;;;;;;;;;;4999796;28;20116;-72
2023/01/16 13:57:30;;;;;;;15.40;10.30;;;;;;;;;;4978125;28;20100;-72
2023/01/16 13:59:55;;;;;;;20.90;11.82;;;;;;;;;;4975604;28;20038;-72
2023/01/16 14:02:38;;;;;;;26.40;12.63;;;;;;;;;;4978981;28;20045;-73
2023/01/16 14:05:12;;;;;;;20.88;12.18;;;;;;;;;;4983220;28;20029;-72
2023/01/16 14:10:43;;;;;;;22.63;12.00;;;;;;;;;;4975016;28;20117;-74
2023/01/16 14:13:27;;;;;;;40.47;14.25;;;;;;;;;;4976470;28;20029;-74
2023/01/16 14:19:02;;;;;;;40.50;15.32;;;;;;;;;;4977508;28;20038;-73
2023/01/16 14:21:38;;;;;;;34.22;14.52;;;;;;;;;;4992268;28;20030;-73
2023/01/16 14:24:17;;;;;;;37.80;18.30;;;;;;;;;;4982487;28;20407;-72
2023/01/16 14:26:42;;;;;;;;;;;;;;;;;;4986483;28;20034;-70
2023/01/16 14:29:16;;;;;;;65.65;20.92;;;;;;;;;;4984611;28;20680;-71
2023/01/16 14:31:50;;;;;;;35.05;15.48;;;;;;;;;;4984611;28;20041;-70
2023/01/16 14:34:45;;;;;;;31.92;14.15;;;;;;;;;;4965410;28;20038;-71
2023/01/16 14:37:16;;;;;;;31.75;13.63;;;;;;;;;;4976273;28;20081;-71
2023/01/16 14:40:11;;;;;;;27.83;14.20;;;;;;;;;;4962659;28;20042;-72
2023/01/16 14:56:41;;;;;;;6.10;1.92;;;;;;;;;;4964943;28;20037;-70
2023/01/16 14:59:22;;;;;;;4.35;1.52;;;;;;;;;;4965234;28;22177;-71
2023/01/16 15:04:48;;;;;;;9.07;1.30;;;;;;;;;;4964619;28;20529;-71
2023/01/16 15:07:18;;;;;;;8.85;1.30;;;;;;;;;;4984057;28;20032;-71
2023/01/16 15:09:44;;;;;;;6.80;1.00;;;;;;;;;;4983673;28;20061;-70
2023/01/16 15:12:11;;;;;;;5.43;0.77;;;;;;;;;;5015192;28;20720;-72
2023/01/16 15:14:37;;;;;;;3.67;0.80;;;;;;;;;;4966151;28;20056;-72
2023/01/16 15:22:42;;;;;;;5.30;0.80;;;;;;;;;;4969109;28;20038;-72
2023/01/16 15:25:17;;;;;;;6.03;0.90;;;;;;;;;;4964968;28;20316;-73
2023/01/16 15:27:47;;;;;;;4.15;0.90;;;;;;;;;;4965725;28;20506;-73
2023/01/16 15:30:17;;;;;;;7.30;0.70;;;;;;;;;;4967218;28;20036;-73
2023/01/16 15:33:44;;;;;;;4.57;0.80;;;;;;;;;;4986768;28;20038;-74
2023/01/16 15:35:45;;;;;;;3.00;0.60;;;;;;;;;;5004206;28;20068;-72
2023/01/16 15:38:11;;;;;;;1.60;0.40;;;;;;;;;;5007637;28;20331;-72
2023/01/16 15:40:37;;;;;;;1.00;0.60;;;;;;;;;;5004909;28;20464;-72
2023/01/16 15:48:43;;;;;;;4.22;0.60;;;;;;;;;;5042737;28;20572;-71
2023/01/16 15:51:15;;;;;;;4.75;0.60;;;;;;;;;;5040718;28;20036;-72
2023/01/16 15:53:46;;;;;;;1.95;0.75;;;;;;;;;;5042578;28;20480;-71
2023/01/16 15:56:30;;;;;;;5.22;1.17;;;;;;;;;;5040737;28;20499;-71
2023/01/16 15:58:55;;;;;;;5.65;1.52;;;;;;;;;;5042190;28;20460;-70
2023/01/16 16:01:28;;;;;;;6.65;1.30;;;;;;;;;;5030705;28;20029;-71
2023/01/16 16:03:55;;;;;;;5.38;1.40;;;;;;;;;;5022659;28;20103;-70
2023/01/16 16:06:24;;;;;;;5.03;1.50;;;;;;;;;;5022612;28;20151;-71
2023/01/16 16:08:51;;;;;;;4.53;1.05;;;;;;;;;;5022438;28;20029;-70